PWSweather.com
Personal Weather Stations
Station Observations
IBRABANT12
Leuven, BlandenBE 3052

LeuvenBlandenBE 3052

Lat: 50.8252218, Lon: 4.709682799999996

Elevation: 193

Station Type: Davis Vantage Vue

http://www.weerstationblanden.be

Latest ConditionsUpdated 11:10:19 AM GMT+01:01 Thursday, Jan 29, 2015
Currently Today's Max Today's Min Today's Average
Temperature 38.7°F3.7°C 38.7°F3.7°C 34.9°F1.6°C 36.4°F2.4°C
Dew Point 34.9°F1.6°C 35.0°F1.7°C 30.3°F-0.9°C 32.5°F0.3°C
Winds 11.3 mph SW18.2 kmh SW 16.8 mph SW27.0 kmh SW - 11.0 mph 17.7 kmh
Wind Gusts 16.0 mph25.7 kmh 23.0 mph37.0 kmh - -
Humidity 86% 90% 80% 86%
Pressure 29.17 in987.8 mb 29.49 in998.6 mb 29.17 in987.8 mb -
Hour Temp Dew Point Humidity Winds Wind Gusts Pressure Precip Precip Rate Daily Precip Total
11:10 AM 38.7°F3.7°C 34.9°F1.6°C 86% 11.3 mph SW18.2 kmh SW 16.0 mph25.7 kmh 29.17 in987.8 mb 0.00 in0.0 mm 0.00 in/hr0.0 mm/hr 0.00 in0.0 mm
11:00 AM 38.7°F3.7°C 34.9°F1.6°C 86% 12.3 mph SW19.8 kmh SW 17.0 mph27.4 kmh 29.17 in987.8 mb 0.00 in0.0 mm 0.00 in/hr0.0 mm/hr 0.00 in0.0 mm
10:50 AM 38.5°F3.6°C 35.0°F1.7°C 87% 12.8 mph SSW20.6 kmh SSW 19.0 mph30.6 kmh 29.18 in988.1 mb 0.00 in0.0 mm 0.00 in/hr0.0 mm/hr 0.00 in0.0 mm
10:40 AM 38.3°F3.5°C 34.8°F1.6°C 87% 12.5 mph SW20.1 kmh SW 20.0 mph32.2 kmh 29.18 in988.1 mb 0.00 in0.0 mm 0.00 in/hr0.0 mm/hr 0.00 in0.0 mm
10:30 AM 38.2°F3.4°C 34.6°F1.4°C 87% 10.5 mph SW16.9 kmh SW 15.0 mph24.1 kmh 29.19 in988.5 mb 0.00 in0.0 mm 0.00 in/hr0.0 mm/hr 0.00 in0.0 mm
10:20 AM 37.9°F3.3°C 34.4°F1.3°C 87% 14.1 mph SW22.7 kmh SW 18.0 mph29.0 kmh 29.20 in988.8 mb 0.00 in0.0 mm 0.00 in/hr0.0 mm/hr 0.00 in0.0 mm
10:10 AM 37.6°F3.1°C 34.4°F1.3°C 88% 14.1 mph SW22.7 kmh SW 17.0 mph27.4 kmh 29.20 in988.8 mb 0.00 in0.0 mm 0.00 in/hr0.0 mm/hr 0.00 in0.0 mm
10:00 AM 37.5°F3.1°C 34.3°F1.3°C 88% 12.5 mph SW20.1 kmh SW 14.0 mph22.5 kmh 29.21 in989.2 mb 0.00 in0.0 mm 0.00 in/hr0.0 mm/hr 0.00 in0.0 mm
09:50 AM 37.2°F2.9°C 34.3°F1.3°C 89% 16.8 mph SW27.0 kmh SW 19.0 mph30.6 kmh 29.21 in989.2 mb 0.00 in0.0 mm 0.00 in/hr0.0 mm/hr 0.00 in0.0 mm
09:40 AM 37.0°F2.8°C 34.1°F1.2°C 89% 14.7 mph SW23.7 kmh SW 15.0 mph24.1 kmh 29.22 in989.5 mb 0.00 in0.0 mm 0.00 in/hr0.0 mm/hr 0.00 in0.0 mm
09:30 AM 36.9°F2.7°C 34.0°F1.1°C 89% 10.8 mph SW17.4 kmh SW 18.0 mph29.0 kmh 29.22 in989.5 mb 0.00 in0.0 mm 0.00 in/hr0.0 mm/hr 0.00 in0.0 mm
09:20 AM 36.9°F2.7°C 34.0°F1.1°C 89% 10.2 mph SW16.4 kmh SW 13.0 mph20.9 kmh 29.23 in989.8 mb 0.00 in0.0 mm 0.00 in/hr0.0 mm/hr 0.00 in0.0 mm
09:10 AM 36.9°F2.7°C 34.0°F1.1°C 89% 8.7 mph SW14.0 kmh SW 13.0 mph20.9 kmh 29.23 in989.8 mb 0.00 in0.0 mm 0.00 in/hr0.0 mm/hr 0.00 in0.0 mm
09:00 AM 36.8°F2.7°C 33.9°F1.1°C 89% 10.9 mph WSW17.5 kmh WSW 15.0 mph24.1 kmh 29.24 in990.2 mb 0.00 in0.0 mm 0.00 in/hr0.0 mm/hr 0.00 in0.0 mm
08:50 AM 36.8°F2.7°C 33.8°F1.0°C 89% 13.5 mph SW21.7 kmh SW 16.0 mph25.7 kmh 29.25 in990.5 mb 0.00 in0.0 mm 0.00 in/hr0.0 mm/hr 0.00 in0.0 mm
08:40 AM 36.7°F2.6°C 33.8°F1.0°C 89% 12.4 mph SW20.0 kmh SW 17.0 mph27.4 kmh 29.25 in990.5 mb 0.00 in0.0 mm 0.00 in/hr0.0 mm/hr 0.00 in0.0 mm
08:30 AM 36.7°F2.6°C 33.8°F1.0°C 89% 11.4 mph SW18.3 kmh SW 16.0 mph25.7 kmh 29.26 in990.9 mb 0.00 in0.0 mm 0.00 in/hr0.0 mm/hr 0.00 in0.0 mm
08:20 AM 36.5°F2.5°C 33.6°F0.9°C 89% 12.9 mph SW20.8 kmh SW 16.0 mph25.7 kmh 29.26 in990.9 mb 0.00 in0.0 mm 0.00 in/hr0.0 mm/hr 0.00 in0.0 mm
08:10 AM 36.5°F2.5°C 33.5°F0.8°C 89% 13.4 mph WSW21.6 kmh WSW 18.0 mph29.0 kmh 29.26 in990.9 mb 0.00 in0.0 mm 0.00 in/hr0.0 mm/hr 0.00 in0.0 mm
08:00 AM 36.4°F2.4°C 33.7°F0.9°C 90% 12.7 mph SW20.4 kmh SW 15.0 mph24.1 kmh 29.27 in991.2 mb 0.00 in0.0 mm 0.00 in/hr0.0 mm/hr 0.00 in0.0 mm
07:50 AM 36.4°F2.4°C 33.7°F0.9°C 90% 10.3 mph SW16.6 kmh SW 14.0 mph22.5 kmh 29.27 in991.2 mb 0.00 in0.0 mm 0.00 in/hr0.0 mm/hr 0.00 in0.0 mm
07:40 AM 36.4°F2.4°C 33.5°F0.8°C 89% 8.9 mph SW14.3 kmh SW 13.0 mph20.9 kmh 29.27 in991.2 mb 0.00 in0.0 mm 0.00 in/hr0.0 mm/hr 0.00 in0.0 mm
07:30 AM 36.4°F2.4°C 33.5°F0.8°C 89% 13.3 mph SSW21.4 kmh SSW 18.0 mph29.0 kmh 29.28 in991.5 mb 0.00 in0.0 mm 0.00 in/hr0.0 mm/hr 0.00 in0.0 mm
07:20 AM 36.4°F2.4°C 33.5°F0.8°C 89% 13.0 mph WSW20.9 kmh WSW 17.0 mph27.4 kmh 29.29 in991.9 mb 0.00 in0.0 mm 0.00 in/hr0.0 mm/hr 0.00 in0.0 mm
07:10 AM 36.4°F2.4°C 33.5°F0.8°C 89% 12.1 mph SW19.5 kmh SW 15.0 mph24.1 kmh 29.29 in991.9 mb 0.00 in0.0 mm 0.00 in/hr0.0 mm/hr 0.00 in0.0 mm
07:00 AM 36.4°F2.4°C 33.5°F0.8°C 89% 14.5 mph SW23.3 kmh SW 23.0 mph37.0 kmh 29.29 in991.9 mb 0.00 in0.0 mm 0.00 in/hr0.0 mm/hr 0.00 in0.0 mm
06:50 AM 36.3°F2.4°C 33.4°F0.8°C 89% 9.2 mph SSW14.8 kmh SSW 12.0 mph19.3 kmh 29.30 in992.2 mb 0.00 in0.0 mm 0.00 in/hr0.0 mm/hr 0.00 in0.0 mm
06:40 AM 36.4°F2.4°C 33.5°F0.8°C 89% 14.3 mph SW23.0 kmh SW 19.0 mph30.6 kmh 29.30 in992.2 mb 0.00 in0.0 mm 0.00 in/hr0.0 mm/hr 0.00 in0.0 mm
06:30 AM 36.5°F2.5°C 33.3°F0.7°C 88% 16.0 mph S25.7 kmh S 21.0 mph33.8 kmh 29.32 in992.9 mb 0.00 in0.0 mm 0.00 in/hr0.0 mm/hr 0.00 in0.0 mm
06:20 AM 36.5°F2.5°C 33.2°F0.7°C 88% 12.6 mph SW20.3 kmh SW 17.0 mph27.4 kmh 29.32 in992.9 mb 0.00 in0.0 mm 0.00 in/hr0.0 mm/hr 0.00 in0.0 mm
06:10 AM 36.4°F2.4°C 33.2°F0.7°C 88% 11.3 mph SW18.2 kmh SW 14.0 mph22.5 kmh 29.33 in993.2 mb 0.00 in0.0 mm 0.00 in/hr0.0 mm/hr 0.00 in0.0 mm
06:00 AM 36.4°F2.4°C 32.9°F0.5°C 87% 13.1 mph SW21.1 kmh SW 14.0 mph22.5 kmh 29.33 in993.2 mb 0.00 in0.0 mm 0.00 in/hr0.0 mm/hr 0.00 in0.0 mm
05:50 AM 36.5°F2.5°C 32.7°F0.4°C 86% 9.4 mph SSW15.1 kmh SSW 14.0 mph22.5 kmh 29.33 in993.2 mb 0.00 in0.0 mm 0.00 in/hr0.0 mm/hr 0.00 in0.0 mm
05:40 AM 36.5°F2.5°C 32.7°F0.4°C 86% 13.1 mph SW21.1 kmh SW 20.0 mph32.2 kmh 29.34 in993.6 mb 0.00 in0.0 mm 0.00 in/hr0.0 mm/hr 0.00 in0.0 mm
05:30 AM 36.6°F2.6°C 32.5°F0.3°C 85% 14.3 mph SW23.0 kmh SW 16.0 mph25.7 kmh 29.34 in993.6 mb 0.00 in0.0 mm 0.00 in/hr0.0 mm/hr 0.00 in0.0 mm
05:20 AM 36.6°F2.6°C 32.5°F0.3°C 85% 11.5 mph SSW18.5 kmh SSW 18.0 mph29.0 kmh 29.35 in993.9 mb 0.00 in0.0 mm 0.00 in/hr0.0 mm/hr 0.00 in0.0 mm
05:10 AM 36.5°F2.5°C 32.4°F0.2°C 85% 11.7 mph SW18.8 kmh SW 17.0 mph27.4 kmh 29.35 in993.9 mb 0.00 in0.0 mm 0.00 in/hr0.0 mm/hr 0.00 in0.0 mm
05:00 AM 36.7°F2.6°C 32.6°F0.3°C 85% 10.5 mph SW16.9 kmh SW 15.0 mph24.1 kmh 29.36 in994.2 mb 0.00 in0.0 mm 0.00 in/hr0.0 mm/hr 0.00 in0.0 mm
04:50 AM 36.5°F2.5°C 32.4°F0.2°C 85% 13.1 mph SSW21.1 kmh SSW 17.0 mph27.4 kmh 29.36 in994.2 mb 0.00 in0.0 mm 0.00 in/hr0.0 mm/hr 0.00 in0.0 mm
04:40 AM 36.4°F2.4°C 32.3°F0.2°C 85% 14.3 mph SW23.0 kmh SW 17.0 mph27.4 kmh 29.37 in994.6 mb 0.00 in0.0 mm 0.00 in/hr0.0 mm/hr 0.00 in0.0 mm
04:30 AM 36.3°F2.4°C 32.2°F0.1°C 85% 12.4 mph SW20.0 kmh SW 18.0 mph29.0 kmh 29.37 in994.6 mb 0.00 in0.0 mm 0.00 in/hr0.0 mm/hr 0.00 in0.0 mm
04:20 AM 36.1°F2.3°C 32.0°F0.0°C 85% 9.3 mph SW15.0 kmh SW 11.0 mph17.7 kmh 29.37 in994.6 mb 0.00 in0.0 mm 0.00 in/hr0.0 mm/hr 0.00 in0.0 mm
04:10 AM 36.2°F2.3°C 31.8°F-0.1°C 84% 10.4 mph SW16.7 kmh SW 12.0 mph19.3 kmh 29.38 in994.9 mb 0.00 in0.0 mm 0.00 in/hr0.0 mm/hr 0.00 in0.0 mm
04:00 AM 36.1°F2.3°C 31.7°F-0.2°C 84% 10.3 mph SW16.6 kmh SW 17.0 mph27.4 kmh 29.39 in995.3 mb 0.00 in0.0 mm 0.00 in/hr0.0 mm/hr 0.00 in0.0 mm
03:50 AM 36.2°F2.3°C 31.8°F-0.1°C 84% 11.0 mph SW17.7 kmh SW 15.0 mph24.1 kmh 29.39 in995.3 mb 0.00 in0.0 mm 0.00 in/hr0.0 mm/hr 0.00 in0.0 mm
03:40 AM 36.1°F2.3°C 31.7°F-0.2°C 84% 8.6 mph SW13.8 kmh SW 12.0 mph19.3 kmh 29.40 in995.6 mb 0.00 in0.0 mm 0.00 in/hr0.0 mm/hr 0.00 in0.0 mm
03:30 AM 36.1°F2.3°C 31.4°F-0.3°C 83% 9.4 mph SW15.1 kmh SW 12.0 mph19.3 kmh 29.40 in995.6 mb 0.00 in0.0 mm 0.00 in/hr0.0 mm/hr 0.00 in0.0 mm
03:20 AM 35.8°F2.1°C 31.4°F-0.3°C 84% 10.4 mph SW16.7 kmh SW 13.0 mph20.9 kmh 29.41 in995.9 mb 0.00 in0.0 mm 0.00 in/hr0.0 mm/hr 0.00 in0.0 mm
03:10 AM 35.5°F1.9°C 31.2°F-0.4°C 84% 9.5 mph SW15.3 kmh SW 11.0 mph17.7 kmh 29.41 in995.9 mb 0.00 in0.0 mm 0.00 in/hr0.0 mm/hr 0.00 in0.0 mm
03:00 AM 35.4°F1.9°C 31.0°F-0.6°C 84% 9.5 mph SW15.3 kmh SW 12.0 mph19.3 kmh 29.42 in996.3 mb 0.00 in0.0 mm 0.00 in/hr0.0 mm/hr 0.00 in0.0 mm
02:50 AM 35.2°F1.8°C 30.8°F-0.7°C 84% 7.6 mph SW12.2 kmh SW 15.0 mph24.1 kmh 29.42 in996.3 mb 0.00 in0.0 mm 0.00 in/hr0.0 mm/hr 0.00 in0.0 mm
02:40 AM 35.1°F1.7°C 30.8°F-0.7°C 84% 9.6 mph SW15.4 kmh SW 13.0 mph20.9 kmh 29.42 in996.3 mb 0.00 in0.0 mm 0.00 in/hr0.0 mm/hr 0.00 in0.0 mm
02:30 AM 35.1°F1.7°C 30.5°F-0.8°C 83% 8.3 mph SSW13.4 kmh SSW 10.0 mph16.1 kmh 29.43 in996.6 mb 0.00 in0.0 mm 0.00 in/hr0.0 mm/hr 0.00 in0.0 mm
02:20 AM 35.1°F1.7°C 30.7°F-0.7°C 84% 8.8 mph WSW14.2 kmh WSW 11.0 mph17.7 kmh 29.43 in996.6 mb 0.00 in0.0 mm 0.00 in/hr0.0 mm/hr 0.00 in0.0 mm
02:10 AM 35.0°F1.7°C 30.7°F-0.7°C 84% 7.4 mph SW11.9 kmh SW 13.0 mph20.9 kmh 29.43 in996.6 mb 0.00 in0.0 mm 0.00 in/hr0.0 mm/hr 0.00 in0.0 mm
02:00 AM 34.9°F1.6°C 30.6°F-0.8°C 84% 7.9 mph SW12.7 kmh SW 12.0 mph19.3 kmh 29.44 in997.0 mb 0.00 in0.0 mm 0.00 in/hr0.0 mm/hr 0.00 in0.0 mm
01:50 AM 35.0°F1.7°C 30.4°F-0.9°C 83% 7.7 mph SW12.4 kmh SW 12.0 mph19.3 kmh 29.45 in997.3 mb 0.00 in0.0 mm 0.00 in/hr0.0 mm/hr 0.00 in0.0 mm
01:40 AM 35.0°F1.7°C 30.3°F-0.9°C 83% 8.4 mph WSW13.5 kmh WSW 11.0 mph17.7 kmh 29.45 in997.3 mb 0.00 in0.0 mm 0.00 in/hr0.0 mm/hr 0.00 in0.0 mm
01:30 AM 35.0°F1.7°C 30.4°F-0.9°C 83% 8.3 mph SW13.4 kmh SW 10.0 mph16.1 kmh 29.46 in997.6 mb 0.00 in0.0 mm 0.00 in/hr0.0 mm/hr 0.00 in0.0 mm
01:20 AM 35.2°F1.8°C 30.6°F-0.8°C 83% 5.6 mph SW9.0 kmh SW 10.0 mph16.1 kmh 29.46 in997.6 mb 0.00 in0.0 mm 0.00 in/hr0.0 mm/hr 0.00 in0.0 mm
01:10 AM 35.3°F1.8°C 30.6°F-0.8°C 83% 9.9 mph WSW15.9 kmh WSW 14.0 mph22.5 kmh 29.47 in998.0 mb 0.00 in0.0 mm 0.00 in/hr0.0 mm/hr 0.00 in0.0 mm
01:00 AM 35.4°F1.9°C 30.5°F-0.8°C 82% 7.8 mph SW12.6 kmh SW 11.0 mph17.7 kmh 29.47 in998.0 mb 0.00 in0.0 mm 0.00 in/hr0.0 mm/hr 0.00 in0.0 mm
12:50 AM 35.5°F1.9°C 30.5°F-0.8°C 82% 9.5 mph SW15.3 kmh SW 13.0 mph20.9 kmh 29.48 in998.3 mb 0.00 in0.0 mm 0.00 in/hr0.0 mm/hr 0.00 in0.0 mm
12:40 AM 35.9°F2.2°C 30.6°F-0.8°C 81% 8.3 mph SW13.4 kmh SW 12.0 mph19.3 kmh 29.48 in998.3 mb 0.00 in0.0 mm 0.00 in/hr0.0 mm/hr 0.00 in0.0 mm
12:30 AM 36.1°F2.3°C 30.5°F-0.8°C 80% 9.0 mph SSW14.5 kmh SSW 11.0 mph17.7 kmh 29.48 in998.3 mb 0.00 in0.0 mm 0.00 in/hr0.0 mm/hr 0.00 in0.0 mm
12:20 AM 36.0°F2.2°C 30.7°F-0.7°C 81% 9.4 mph SW15.1 kmh SW 13.0 mph20.9 kmh 29.48 in998.3 mb 0.00 in0.0 mm 0.00 in/hr0.0 mm/hr 0.00 in0.0 mm
12:10 AM 36.0°F2.2°C 30.7°F-0.7°C 81% 10.6 mph SW17.1 kmh SW 13.0 mph20.9 kmh 29.49 in998.6 mb 0.00 in0.0 mm 0.00 in/hr0.0 mm/hr 0.00 in0.0 mm
12:00 AM 36.1°F2.3°C 30.8°F-0.7°C 81% 10.6 mph WSW17.1 kmh WSW 12.0 mph19.3 kmh 29.49 in998.6 mb 0.00 in0.0 mm 0.00 in/hr0.0 mm/hr 0.00 in0.0 mm